Terminal Aerodrome Forecast
Issued by NWS Quad Cities IA IL

Home | Current Version | Previous Version | Text Only | Print | Product List | Glossary On
Versions: 1 2 3 4 5 6 7 8 9 10 11 12 13 14 15 16 17 18 19 20 21 22 23 24 25
420
FTUS43 KDVN 232035 AAA
TAFDBQ
TAF AMD
KDBQ 232035Z 2321/2418 33014G22KT P6SM SCT040
     FM240100 35008KT P6SM SKC
     FM240900 01005KT 4SM BR FEW002
     FM241500 04007KT P6SM SCT040=

USA.gov is the U.S. government's official web portal to all federal, state and local government web resources and services.